Time;durP1;ratioP1;P1;durP2;ratioP2;P2;SDS_P1;SDS_P2;PMS_P1;PMS_P2;Temp;Humidity;BMP_temperature;BMP_pressure;BME280_temperature;BME280_humidity;BME280_pressure;Samples;Min_cycle;Max_cycle;Signal;HPM_P1;HPM_P2
2022/09/03 00:00:40;;;;;;;4.55;2.47;;;;;;;;;;5036352;28;20102;-95
2022/09/03 00:03:15;;;;;;;5.10;2.50;;;;;;;;;;5036540;28;20045;-95
2022/09/03 00:05:44;;;;;;;;;;;;;;;;;;5037118;28;20079;-93
2022/09/03 00:08:14;;;;;;;2.88;2.40;;;;;;;;;;5038915;28;20319;-96
2022/09/03 00:11:00;;;;;;;2.35;2.17;;;;;;;;;;5036520;28;20061;-95
2022/09/03 00:13:39;;;;;;;7.00;2.60;;;;;;;;;;5036832;28;20446;-94
2022/09/03 00:16:09;;;;;;;5.18;2.90;;;;;;;;;;5035761;28;20061;-93
2022/09/03 00:18:52;;;;;;;3.47;2.55;;;;;;;;;;5036215;28;20413;-96
2022/09/03 00:21:51;;;;;;;3.20;2.88;;;;;;;;;;5035810;28;20057;-95
2022/09/03 00:24:20;;;;;;;2.88;2.67;;;;;;;;;;4993233;28;20071;-94
2022/09/03 00:26:53;;;;;;;3.28;2.97;;;;;;;;;;5035731;28;20077;-96
2022/09/03 00:29:24;;;;;;;2.80;2.60;;;;;;;;;;5035909;28;20102;-95
2022/09/03 00:31:54;;;;;;;2.55;2.35;;;;;;;;;;5035836;28;20122;-93
2022/09/03 00:34:29;;;;;;;4.28;2.85;;;;;;;;;;5036935;28;20049;-92
2022/09/03 00:36:56;;;;;;;4.68;2.28;;;;;;;;;;5035927;28;20068;-95
2022/09/03 00:39:25;;;;;;;5.05;2.42;;;;;;;;;;5035987;28;20095;-95
2022/09/03 00:42:12;;;;;;;2.42;2.33;;;;;;;;;;5039694;28;20114;-94
2022/09/03 00:44:48;;;;;;;2.70;2.60;;;;;;;;;;5040936;28;20053;-92
2022/09/03 00:47:19;;;;;;;2.80;2.40;;;;;;;;;;5040995;28;20435;-92
2022/09/03 00:49:53;;;;;;;2.78;2.58;;;;;;;;;;5040313;28;20456;-95
2022/09/03 00:52:30;;;;;;;3.05;2.85;;;;;;;;;;5040744;28;20127;-95
2022/09/03 00:54:59;;;;;;;2.90;2.67;;;;;;;;;;5040648;28;20057;-95
2022/09/03 00:57:43;;;;;;;2.55;2.38;;;;;;;;;;5038955;28;20052;-93
2022/09/03 01:00:14;;;;;;;2.63;2.42;;;;;;;;;;5040436;28;20551;-96
2022/09/03 01:02:57;;;;;;;4.05;2.80;;;;;;;;;;5039331;28;20053;-93
2022/09/03 01:05:37;;;;;;;3.20;3.00;;;;;;;;;;5038784;28;20493;-93
2022/09/03 01:08:20;;;;;;;3.70;3.47;;;;;;;;;;5038649;28;20103;-96
2022/09/03 01:10:56;;;;;;;3.58;3.28;;;;;;;;;;5040552;28;20052;-95
2022/09/03 01:13:28;;;;;;;3.60;3.40;;;;;;;;;;5040303;28;20060;-92
2022/09/03 01:16:00;;;;;;;3.78;3.05;;;;;;;;;;5039165;28;20102;-96
2022/09/03 01:18:34;;;;;;;3.53;3.20;;;;;;;;;;5039276;28;20067;-93
2022/09/03 01:21:18;;;;;;;3.33;3.05;;;;;;;;;;5041198;28;20045;-92
2022/09/03 01:23:49;;;;;;;3.97;3.15;;;;;;;;;;5037207;28;20061;-95
2022/09/03 01:26:22;;;;;;;3.63;3.33;;;;;;;;;;5038718;28;20041;-93
2022/09/03 01:28:53;;;;;;;;;;;;;;;;;;5039554;28;20448;-93
2022/09/03 01:31:41;;;;;;;3.25;3.13;;;;;;;;;;5039894;28;19920;-93
2022/09/03 01:34:36;;;;;;;4.13;3.30;;;;;;;;;;5041869;28;20493;-95
2022/09/03 01:37:06;;;;;;;3.38;3.17;;;;;;;;;;5030854;28;20041;-93
2022/09/03 01:39:45;;;;;;;3.20;3.00;;;;;;;;;;5038081;28;20053;-92
2022/09/03 01:42:25;;;;;;;3.67;3.47;;;;;;;;;;5040042;28;20049;-93
2022/09/03 01:45:11;;;;;;;3.72;3.13;;;;;;;;;;5037670;28;20045;-94
2022/09/03 01:47:50;;;;;;;3.83;3.53;;;;;;;;;;5039064;28;20067;-93
2022/09/03 01:50:26;;;;;;;3.50;3.20;;;;;;;;;;5040638;28;20045;-93
2022/09/03 01:52:54;;;;;;;3.35;3.15;;;;;;;;;;5037600;28;20115;-93
2022/09/03 01:55:29;;;;;;;4.65;3.47;;;;;;;;;;5038696;28;20524;-96
2022/09/03 01:57:56;;;;;;;;;;;;;;;;;;5053428;28;20063;-94
2022/09/03 02:00:24;;;;;;;3.08;2.80;;;;;;;;;;5043503;28;19920;-95
2022/09/03 02:02:52;;;;;;;2.90;2.80;;;;;;;;;;5039627;28;20049;-95
2022/09/03 02:05:20;;;;;;;3.50;3.20;;;;;;;;;;5037927;28;20052;-96
2022/09/03 02:07:51;;;;;;;3.90;3.60;;;;;;;;;;5043013;28;20044;-93
2022/09/03 02:10:21;;;;;;;3.17;2.97;;;;;;;;;;5044102;28;20071;-93
2022/09/03 02:12:51;;;;;;;3.95;3.60;;;;;;;;;;5037898;28;20094;-92
2022/09/03 02:15:20;;;;;;;3.70;3.50;;;;;;;;;;5037822;28;20413;-93
2022/09/03 02:17:50;;;;;;;4.47;4.15;;;;;;;;;;5039352;28;20049;-96
2022/09/03 02:20:19;;;;;;;3.85;3.25;;;;;;;;;;5042429;28;20053;-92
2022/09/03 02:22:47;;;;;;;5.70;3.53;;;;;;;;;;5038157;28;20083;-93
2022/09/03 02:25:16;;;;;;;3.80;3.25;;;;;;;;;;5040438;28;20464;-93
2022/09/03 02:27:45;;;;;;;3.90;3.38;;;;;;;;;;5039671;28;20052;-96
2022/09/03 02:30:12;;;;;;;4.20;3.80;;;;;;;;;;5024935;28;20485;-93
2022/09/03 02:32:40;;;;;;;3.45;3.30;;;;;;;;;;5040609;28;20056;-93
2022/09/03 02:35:08;;;;;;;3.58;3.38;;;;;;;;;;5041738;28;20072;-94
2022/09/03 02:37:35;;;;;;;4.55;3.38;;;;;;;;;;5038021;28;20045;-96
2022/09/03 02:40:07;;;;;;;3.47;3.28;;;;;;;;;;5039093;28;20049;-96
2022/09/03 02:42:35;;;;;;;3.70;3.40;;;;;;;;;;5040837;28;20045;-93
2022/09/03 02:45:21;;;;;;;3.70;3.38;;;;;;;;;;5039039;28;20053;-96
2022/09/03 02:47:51;;;;;;;9.60;3.20;;;;;;;;;;5038553;28;20057;-95
2022/09/03 02:50:19;;;;;;;4.10;3.80;;;;;;;;;;5038449;28;20492;-93
2022/09/03 02:52:47;;;;;;;3.53;3.22;;;;;;;;;;5039374;28;20057;-95
2022/09/03 02:55:15;;;;;;;3.58;3.30;;;;;;;;;;5037899;28;20053;-92
2022/09/03 02:57:44;;;;;;;4.80;3.47;;;;;;;;;;5040050;28;20045;-93
2022/09/03 03:00:12;;;;;;;3.97;3.67;;;;;;;;;;5039527;28;20049;-95
2022/09/03 03:02:40;;;;;;;3.53;3.30;;;;;;;;;;5038184;28;20099;-95
2022/09/03 03:05:09;;;;;;;4.80;3.08;;;;;;;;;;5037459;28;20049;-94
2022/09/03 03:07:38;;;;;;;3.53;3.22;;;;;;;;;;5039010;28;20052;-91
2022/09/03 03:10:06;;;;;;;4.10;3.70;;;;;;;;;;5038938;28;20057;-91
2022/09/03 03:12:33;;;;;;;3.40;3.20;;;;;;;;;;5036581;28;20095;-95
2022/09/03 03:15:01;;;;;;;3.53;3.22;;;;;;;;;;5036701;28;20501;-95
2022/09/03 03:17:28;;;;;;;4.20;3.80;;;;;;;;;;5036275;28;20459;-95
2022/09/03 03:19:55;;;;;;;3.67;3.47;;;;;;;;;;5038356;28;20049;-92
2022/09/03 03:22:23;;;;;;;3.80;3.50;;;;;;;;;;5038809;28;20045;-93
2022/09/03 03:24:51;;;;;;;3.40;3.28;;;;;;;;;;5036263;28;20485;-93
2022/09/03 03:27:19;;;;;;;5.63;3.28;;;;;;;;;;5038020;28;20045;-95
2022/09/03 03:29:46;;;;;;;3.10;2.85;;;;;;;;;;5039008;28;20053;-95
2022/09/03 03:32:13;;;;;;;4.22;3.60;;;;;;;;;;5037212;28;20489;-95
2022/09/03 03:34:41;;;;;;;3.45;3.25;;;;;;;;;;5054049;28;20069;-95
2022/09/03 03:37:08;;;;;;;5.18;4.10;;;;;;;;;;5037435;28;20080;-95
2022/09/03 03:39:35;;;;;;;6.63;3.70;;;;;;;;;;5037092;28;20045;-94
2022/09/03 03:42:02;;;;;;;5.30;3.47;;;;;;;;;;5037793;28;20114;-95
2022/09/03 03:44:30;;;;;;;3.13;2.92;;;;;;;;;;5040106;28;20103;-95
2022/09/03 03:46:59;;;;;;;3.70;3.40;;;;;;;;;;5056431;28;20049;-94
2022/09/03 03:49:27;;;;;;;3.83;3.35;;;;;;;;;;5039154;28;20049;-95
2022/09/03 03:51:55;;;;;;;3.70;3.28;;;;;;;;;;5039367;28;20029;-95
2022/09/03 03:54:22;;;;;;;4.50;3.72;;;;;;;;;;5042030;28;20045;-95
2022/09/03 03:56:51;;;;;;;3.40;3.13;;;;;;;;;;5037104;28;20061;-95
2022/09/03 03:59:21;;;;;;;4.40;3.88;;;;;;;;;;5037178;28;20139;-93
2022/09/03 04:01:49;;;;;;;4.22;3.92;;;;;;;;;;5041392;28;20064;-95
2022/09/03 04:04:31;;;;;;;3.40;3.20;;;;;;;;;;5046164;28;20061;-95
2022/09/03 04:06:59;;;;;;;3.53;3.28;;;;;;;;;;5040091;28;20420;-95
2022/09/03 04:09:26;;;;;;;10.88;3.45;;;;;;;;;;5040398;28;20068;-94
2022/09/03 04:11:55;;;;;;;3.50;3.30;;;;;;;;;;5038172;28;20052;-94
2022/09/03 04:14:23;;;;;;;4.28;3.50;;;;;;;;;;5039964;28;20060;-94
2022/09/03 04:16:50;;;;;;;4.35;4.03;;;;;;;;;;5039359;28;20111;-94
2022/09/03 04:19:18;;;;;;;3.80;3.50;;;;;;;;;;5038554;28;20057;-94
2022/09/03 04:21:45;;;;;;;3.50;3.30;;;;;;;;;;5040240;28;20490;-95
2022/09/03 04:24:13;;;;;;;3.60;3.38;;;;;;;;;;5046078;28;20079;-93
2022/09/03 04:26:41;;;;;;;3.88;3.10;;;;;;;;;;5053096;28;20061;-95
2022/09/03 04:29:09;;;;;;;4.00;3.25;;;;;;;;;;5040512;28;20107;-95
2022/09/03 04:31:37;;;;;;;3.45;3.28;;;;;;;;;;5040617;28;20100;-96
2022/09/03 04:34:06;;;;;;;3.40;3.13;;;;;;;;;;5040842;28;20046;-95
2022/09/03 04:36:33;;;;;;;3.00;2.80;;;;;;;;;;5039330;28;20405;-94
2022/09/03 04:39:01;;;;;;;3.60;3.03;;;;;;;;;;5036918;28;20045;-95
2022/09/03 04:41:29;;;;;;;5.75;4.63;;;;;;;;;;5043863;28;20080;-96
2022/09/03 04:44:00;;;;;;;4.30;3.53;;;;;;;;;;5046247;28;20054;-96
2022/09/03 04:46:33;;;;;;;4.78;4.47;;;;;;;;;;5030311;28;20493;-96
2022/09/03 04:49:00;;;;;;;4.30;4.00;;;;;;;;;;5045513;28;20041;-96
2022/09/03 04:51:31;;;;;;;4.53;4.13;;;;;;;;;;5043804;28;20079;-96
2022/09/03 04:54:00;;;;;;;4.95;4.55;;;;;;;;;;5044795;28;20068;-95
2022/09/03 04:56:32;;;;;;;7.53;5.18;;;;;;;;;;5043420;28;20462;-96
2022/09/03 04:59:00;;;;;;;4.63;4.28;;;;;;;;;;5042367;28;20053;-96
2022/09/03 05:01:30;;;;;;;3.40;3.20;;;;;;;;;;5039765;28;20133;-96
2022/09/03 05:04:24;;;;;;;3.92;3.67;;;;;;;;;;5040970;28;20060;-96
2022/09/03 05:06:52;;;;;;;3.70;3.40;;;;;;;;;;5037590;28;20050;-95
2022/09/03 05:09:20;;;;;;;3.63;3.33;;;;;;;;;;5037942;28;20053;-95
2022/09/03 05:11:47;;;;;;;4.35;3.40;;;;;;;;;;5036901;28;20463;-95
2022/09/03 05:14:14;;;;;;;3.85;3.55;;;;;;;;;;5039696;28;20053;-95
2022/09/03 05:16:41;;;;;;;3.65;3.35;;;;;;;;;;5039763;28;20053;-95
2022/09/03 05:19:18;;;;;;;3.15;3.00;;;;;;;;;;5038201;28;20061;-96
2022/09/03 05:21:45;;;;;;;3.70;3.42;;;;;;;;;;5035682;28;20458;-92
2022/09/03 05:24:13;;;;;;;3.00;2.85;;;;;;;;;;5036106;28;20076;-95
2022/09/03 05:26:41;;;;;;;4.60;3.90;;;;;;;;;;5036165;28;20574;-96
2022/09/03 05:29:08;;;;;;;5.68;4.97;;;;;;;;;;5035116;28;20092;-92
2022/09/03 05:31:37;;;;;;;5.50;5.10;;;;;;;;;;5035428;28;20095;-93
2022/09/03 05:34:05;;;;;;;3.63;2.90;;;;;;;;;;5037288;28;20048;-95
2022/09/03 05:36:34;;;;;;;5.28;2.22;;;;;;;;;;5035025;28;20459;-94
2022/09/03 05:39:02;;;;;;;1.98;1.88;;;;;;;;;;5035824;28;20140;-93
2022/09/03 05:41:31;;;;;;;2.45;1.65;;;;;;;;;;5034612;28;20458;-93
2022/09/03 05:43:59;;;;;;;2.08;1.80;;;;;;;;;;5038332;28;20095;-95
2022/09/03 05:46:33;;;;;;;1.75;1.40;;;;;;;;;;5037129;28;20100;-95
2022/09/03 05:49:01;;;;;;;1.73;1.60;;;;;;;;;;5037099;28;20409;-94
2022/09/03 05:51:28;;;;;;;2.70;1.33;;;;;;;;;;5034718;28;20046;-95
2022/09/03 05:53:56;;;;;;;1.83;1.40;;;;;;;;;;5034237;28;20045;-95
2022/09/03 05:56:25;;;;;;;1.20;1.20;;;;;;;;;;5034147;28;20050;-93
2022/09/03 05:58:53;;;;;;;3.80;1.60;;;;;;;;;;5034747;28;20084;-95
2022/09/03 06:01:22;;;;;;;1.30;1.20;;;;;;;;;;5034306;28;20505;-91
2022/09/03 06:03:54;;;;;;;1.45;1.30;;;;;;;;;;5034400;28;20049;-93
2022/09/03 06:06:24;;;;;;;1.20;1.10;;;;;;;;;;5034560;28;20084;-94
2022/09/03 06:08:55;;;;;;;1.13;1.02;;;;;;;;;;5034344;28;20045;-94
2022/09/03 06:11:26;;;;;;;1.40;1.08;;;;;;;;;;5034097;28;20089;-93
2022/09/03 06:13:55;;;;;;;2.15;1.30;;;;;;;;;;5033945;28;20157;-94
2022/09/03 06:16:24;;;;;;;3.30;1.25;;;;;;;;;;5037676;28;20090;-93
2022/09/03 06:18:58;;;;;;;2.78;1.92;;;;;;;;;;5039742;28;20110;-94
2022/09/03 06:21:26;;;;;;;1.10;1.00;;;;;;;;;;5037540;28;20049;-94
2022/09/03 06:23:55;;;;;;;1.10;1.10;;;;;;;;;;5037475;28;20087;-93
2022/09/03 06:26:27;;;;;;;1.70;0.95;;;;;;;;;;5037920;28;20095;-94
2022/09/03 06:28:55;;;;;;;5.20;1.35;;;;;;;;;;5037424;28;20084;-93
2022/09/03 06:31:23;;;;;;;2.08;1.10;;;;;;;;;;5037248;28;20072;-94
2022/09/03 06:33:52;;;;;;;4.00;1.40;;;;;;;;;;5039223;28;20114;-95
2022/09/03 06:36:21;;;;;;;1.13;0.95;;;;;;;;;;5037213;28;20095;-94
2022/09/03 06:38:51;;;;;;;1.30;1.20;;;;;;;;;;5037035;28;20041;-94
2022/09/03 06:41:19;;;;;;;1.30;1.15;;;;;;;;;;5036812;28;20457;-94
2022/09/03 06:43:48;;;;;;;1.25;1.17;;;;;;;;;;5036959;28;20048;-95
2022/09/03 06:46:16;;;;;;;1.20;1.10;;;;;;;;;;5038121;28;20447;-95
2022/09/03 06:48:44;;;;;;;1.17;1.17;;;;;;;;;;5036744;28;20063;-95
2022/09/03 06:51:16;;;;;;;1.00;1.00;;;;;;;;;;5038954;28;20052;-94
2022/09/03 06:53:45;;;;;;;1.60;0.90;;;;;;;;;;5037573;28;20856;-94
2022/09/03 06:56:13;;;;;;;1.15;1.08;;;;;;;;;;5047431;28;20049;-94
2022/09/03 06:58:42;;;;;;;1.58;1.00;;;;;;;;;;5038574;28;20456;-95
2022/09/03 07:01:11;;;;;;;2.55;1.27;;;;;;;;;;5038779;28;20103;-95
2022/09/03 07:03:40;;;;;;;2.05;1.00;;;;;;;;;;5045072;28;20084;-96
2022/09/03 07:06:10;;;;;;;4.00;1.17;;;;;;;;;;5043070;23;20052;-86
2022/09/03 07:08:37;;;;;;;7.90;1.88;;;;;;;;;;5053138;28;20560;-86
2022/09/03 07:11:09;;;;;;;8.55;2.05;;;;;;;;;;5036082;28;20446;-86
2022/09/03 07:13:39;;;;;;;7.13;1.77;;;;;;;;;;5035955;28;20063;-86
2022/09/03 07:16:07;;;;;;;9.50;2.13;;;;;;;;;;5053118;28;20060;-86
2022/09/03 07:18:34;;;;;;;3.83;1.38;;;;;;;;;;5035891;28;20063;-87
2022/09/03 07:21:03;;;;;;;12.43;2.22;;;;;;;;;;5035964;28;20045;-86
2022/09/03 07:23:31;;;;;;;11.40;1.85;;;;;;;;;;5048044;22;20033;-83
2022/09/03 07:25:59;;;;;;;11.43;2.20;;;;;;;;;;5019879;28;20080;-83
2022/09/03 07:28:27;;;;;;;11.32;1.90;;;;;;;;;;5019381;28;20491;-84
2022/09/03 07:31:00;;;;;;;16.23;2.45;;;;;;;;;;5018629;28;20053;-83
2022/09/03 07:33:28;;;;;;;8.32;1.98;;;;;;;;;;5018308;28;20060;-83
2022/09/03 07:36:05;;;;;;;4.25;1.38;;;;;;;;;;5038221;28;20080;-84
2022/09/03 07:38:33;;;;;;;7.05;1.63;;;;;;;;;;5035657;28;20049;-83
2022/09/03 07:41:01;;;;;;;6.63;1.75;;;;;;;;;;5036087;28;20045;-84
2022/09/03 07:43:29;;;;;;;6.70;1.50;;;;;;;;;;5035966;28;20471;-84
2022/09/03 07:45:56;;;;;;;4.95;1.63;;;;;;;;;;5038888;28;20080;-84
2022/09/03 07:48:24;;;;;;;3.67;1.50;;;;;;;;;;5037186;28;20080;-83
2022/09/03 07:50:52;;;;;;;7.20;1.40;;;;;;;;;;5040629;28;20107;-84
2022/09/03 07:53:19;;;;;;;6.03;1.65;;;;;;;;;;5040159;28;20064;-83
2022/09/03 07:55:48;;;;;;;6.78;1.08;;;;;;;;;;5039270;28;20046;-83
2022/09/03 07:58:16;;;;;;;3.95;1.10;;;;;;;;;;5040788;28;20054;-83
2022/09/03 08:00:44;;;;;;;3.28;1.17;;;;;;;;;;5043724;28;20045;-84
2022/09/03 08:03:11;;;;;;;4.13;1.30;;;;;;;;;;5045833;28;20061;-82
2022/09/03 08:05:38;;;;;;;4.13;1.08;;;;;;;;;;5044940;28;20084;-84
2022/09/03 08:08:07;;;;;;;3.17;1.05;;;;;;;;;;5045096;28;20080;-83
2022/09/03 08:10:35;;;;;;;2.03;1.08;;;;;;;;;;5043565;28;20272;-83
2022/09/03 08:13:04;;;;;;;0.68;0.63;;;;;;;;;;5042341;28;20050;-83
2022/09/03 08:15:32;;;;;;;1.73;0.60;;;;;;;;;;5039655;28;20049;-82
2022/09/03 08:18:01;;;;;;;0.80;0.80;;;;;;;;;;5041566;28;20099;-83
2022/09/03 08:20:31;;;;;;;1.60;1.00;;;;;;;;;;5041154;28;20056;-85
2022/09/03 08:23:02;;;;;;;1.80;0.60;;;;;;;;;;5038571;28;20084;-83
2022/09/03 08:25:29;;;;;;;4.32;0.43;;;;;;;;;;5037632;28;20088;-82
2022/09/03 08:28:00;;;;;;;0.70;0.43;;;;;;;;;;5049178;28;20065;-83
2022/09/03 08:30:27;;;;;;;0.65;0.65;;;;;;;;;;5055486;28;20076;-81
2022/09/03 08:32:54;;;;;;;2.47;1.00;;;;;;;;;;5052338;28;20049;-83
2022/09/03 08:35:22;;;;;;;1.35;0.68;;;;;;;;;;5043586;28;20104;-83
2022/09/03 08:37:52;;;;;;;0.70;0.70;;;;;;;;;;5044104;28;20045;-83
2022/09/03 08:40:23;;;;;;;1.55;0.60;;;;;;;;;;5044427;28;20107;-82
2022/09/03 08:43:15;;;;;;;0.60;0.60;;;;;;;;;;5040487;28;20046;-84
2022/09/03 08:45:43;;;;;;;1.05;0.70;;;;;;;;;;5042523;28;20068;-84
2022/09/03 08:48:13;;;;;;;3.38;0.70;;;;;;;;;;5041950;28;20136;-83
2022/09/03 08:50:43;;;;;;;3.65;0.75;;;;;;;;;;5042173;28;20045;-82
2022/09/03 08:53:28;;;;;;;0.77;0.50;;;;;;;;;;5043971;28;20054;-84
2022/09/03 08:55:59;;;;;;;1.10;0.57;;;;;;;;;;5044025;28;20053;-82
2022/09/03 08:58:27;;;;;;;3.00;0.65;;;;;;;;;;5042860;28;20049;-83
2022/09/03 09:01:06;;;;;;;0.60;0.60;;;;;;;;;;5044505;28;20057;-83
2022/09/03 09:03:45;;;;;;;1.35;0.55;;;;;;;;;;5042122;28;20076;-83
2022/09/03 09:06:17;;;;;;;0.65;0.50;;;;;;;;;;5042972;28;20072;-84
2022/09/03 09:09:10;;;;;;;0.98;0.70;;;;;;;;;;5042900;28;20104;-84
2022/09/03 09:11:37;;;;;;;;;;;;;;;;;;5011982;28;20056;-85
2022/09/03 09:14:25;;;;;;;1.80;0.50;;;;;;;;;;5040752;28;19928;-84
2022/09/03 09:17:04;;;;;;;4.20;0.80;;;;;;;;;;5025257;28;20073;-84
2022/09/03 09:19:50;;;;;;;11.10;0.95;;;;;;;;;;5042231;28;20053;-84
2022/09/03 09:22:23;;;;;;;2.22;0.75;;;;;;;;;;5042102;28;20057;-83
2022/09/03 09:24:50;;;;;;;;;;;;;;;;;;5041922;28;20099;-84
2022/09/03 09:27:18;;;;;;;1.25;0.70;;;;;;;;;;5041644;28;19921;-84
2022/09/03 09:29:49;;;;;;;2.67;0.57;;;;;;;;;;5042028;28;20053;-85
2022/09/03 09:32:19;;;;;;;2.13;0.57;;;;;;;;;;5039248;28;20459;-85
2022/09/03 09:34:47;;;;;;;0.93;0.63;;;;;;;;;;5037594;28;20128;-84
2022/09/03 09:37:18;;;;;;;0.85;0.60;;;;;;;;;;5037449;28;20057;-83
2022/09/03 09:39:56;;;;;;;1.67;0.75;;;;;;;;;;5039007;28;20487;-84
2022/09/03 09:42:24;;;;;;;1.55;1.20;;;;;;;;;;5038584;28;20053;-84
2022/09/03 09:44:51;;;;;;;1.20;0.60;;;;;;;;;;5039700;28;20098;-84
2022/09/03 09:47:21;;;;;;;3.33;0.70;;;;;;;;;;5042868;28;20060;-84
2022/09/03 09:49:48;;;;;;;3.58;0.73;;;;;;;;;;5039322;28;20053;-83
2022/09/03 09:52:16;;;;;;;1.77;0.60;;;;;;;;;;5040513;28;20131;-83
2022/09/03 09:54:47;;;;;;;2.55;0.90;;;;;;;;;;5038178;28;20509;-84
2022/09/03 09:57:18;;;;;;;4.15;0.80;;;;;;;;;;5036938;28;20049;-83
2022/09/03 09:59:46;;;;;;;0.90;0.65;;;;;;;;;;5037744;28;20041;-84
2022/09/03 10:02:27;;;;;;;0.93;0.57;;;;;;;;;;5038327;28;20049;-83
2022/09/03 10:04:58;;;;;;;1.58;0.80;;;;;;;;;;5037294;28;20053;-83
2022/09/03 10:07:32;;;;;;;0.73;0.50;;;;;;;;;;5033569;28;20496;-84
2022/09/03 10:10:01;;;;;;;2.28;0.85;;;;;;;;;;5033683;28;20045;-84
2022/09/03 10:12:30;;;;;;;1.77;0.50;;;;;;;;;;5033012;28;20053;-83
2022/09/03 10:15:02;;;;;;;0.50;0.50;;;;;;;;;;5033166;28;20053;-83
2022/09/03 10:17:34;;;;;;;1.75;0.77;;;;;;;;;;5033701;28;20107;-84
2022/09/03 10:20:27;;;;;;;0.90;0.57;;;;;;;;;;5034878;28;20088;-83
2022/09/03 10:22:55;;;;;;;1.88;0.70;;;;;;;;;;5033524;28;20049;-81
2022/09/03 10:25:26;;;;;;;3.80;1.58;;;;;;;;;;5034454;28;20056;-82
2022/09/03 10:27:55;;;;;;;1.17;0.80;;;;;;;;;;5033821;28;20080;-83
2022/09/03 10:30:25;;;;;;;2.78;0.80;;;;;;;;;;5033680;28;20080;-83
2022/09/03 10:33:11;;;;;;;1.00;0.55;;;;;;;;;;5033659;28;20539;-83
2022/09/03 10:35:45;;;;;;;3.50;0.85;;;;;;;;;;5039725;28;20479;-83
2022/09/03 10:38:24;;;;;;;2.40;0.70;;;;;;;;;;5038681;28;20060;-84
2022/09/03 10:41:06;;;;;;;0.80;0.60;;;;;;;;;;5038706;28;20112;-84
2022/09/03 10:43:34;;;;;;;3.63;0.70;;;;;;;;;;5037946;28;20413;-84
2022/09/03 10:46:31;;;;;;;2.03;0.40;;;;;;;;;;5037901;28;20045;-82
2022/09/03 10:49:01;;;;;;;5.20;1.02;;;;;;;;;;4994108;28;20049;-83
2022/09/03 10:51:36;;;;;;;0.75;0.50;;;;;;;;;;5039688;28;20053;-82
2022/09/03 10:54:18;;;;;;;0.98;0.77;;;;;;;;;;5038083;28;20056;-83
2022/09/03 10:56:53;;;;;;;1.10;0.70;;;;;;;;;;5038277;28;20049;-83
2022/09/03 10:59:28;;;;;;;3.13;0.70;;;;;;;;;;5038675;28;20084;-83
2022/09/03 11:02:01;;;;;;;1.00;0.60;;;;;;;;;;5041434;28;20053;-83
2022/09/03 11:04:39;;;;;;;2.05;0.40;;;;;;;;;;5038538;28;20057;-83
2022/09/03 11:07:14;;;;;;;10.20;1.40;;;;;;;;;;5038329;28;20042;-83
2022/09/03 11:09:50;;;;;;;1.65;0.50;;;;;;;;;;5037667;28;20056;-83
2022/09/03 11:12:30;;;;;;;2.42;0.57;;;;;;;;;;5037347;28;20046;-83
2022/09/03 11:15:04;;;;;;;2.92;0.80;;;;;;;;;;5038370;28;20080;-83
2022/09/03 11:17:39;;;;;;;10.10;1.10;;;;;;;;;;5040634;28;20068;-82
2022/09/03 11:20:23;;;;;;;3.20;0.77;;;;;;;;;;5040015;28;20176;-83
2022/09/03 11:22:50;;;;;;;;;;;;;;;;;;5041053;28;20053;-83
2022/09/03 11:25:19;;;;;;;3.38;1.08;;;;;;;;;;5047415;28;19905;-82
2022/09/03 11:28:02;;;;;;;2.50;0.80;;;;;;;;;;5046317;28;20050;-84
2022/09/03 11:30:37;;;;;;;1.55;0.70;;;;;;;;;;5047627;28;20076;-84
2022/09/03 11:33:08;;;;;;;3.28;0.52;;;;;;;;;;5046825;28;20049;-84
2022/09/03 11:35:35;;;;;;;1.15;0.55;;;;;;;;;;5047565;28;20076;-83
2022/09/03 11:38:04;;;;;;;2.03;0.60;;;;;;;;;;5046455;28;20431;-83
2022/09/03 11:40:35;;;;;;;1.20;1.20;;;;;;;;;;5044076;28;20103;-84
2022/09/03 11:43:14;;;;;;;0.60;0.60;;;;;;;;;;5036362;28;20060;-83
2022/09/03 11:45:42;;;;;;;1.05;0.75;;;;;;;;;;5033757;28;20076;-83
2022/09/03 11:48:38;;;;;;;1.10;1.00;;;;;;;;;;5033027;28;20054;-81
2022/09/03 11:51:17;;;;;;;3.97;0.60;;;;;;;;;;4987640;28;20041;-83
2022/09/03 11:53:53;;;;;;;3.75;0.63;;;;;;;;;;5033636;28;20084;-83
2022/09/03 11:56:21;;;;;;;0.50;0.50;;;;;;;;;;5034901;28;20090;-83
2022/09/03 11:59:08;;;;;;;0.73;0.60;;;;;;;;;;5033547;28;20472;-83
2022/09/03 12:01:36;;;;;;;1.58;0.68;;;;;;;;;;5035602;28;20084;-83
2022/09/03 12:04:08;;;;;;;1.70;0.60;;;;;;;;;;5036486;28;20104;-82
2022/09/03 12:06:38;;;;;;;0.30;0.30;;;;;;;;;;5036258;28;20045;-83
2022/09/03 12:09:13;;;;;;;2.35;0.80;;;;;;;;;;5036365;28;20099;-82
2022/09/03 12:11:43;;;;;;;1.23;0.68;;;;;;;;;;5032511;28;20100;-83
2022/09/03 12:14:21;;;;;;;3.97;0.80;;;;;;;;;;5035760;28;20412;-83
2022/09/03 12:16:49;;;;;;;1.00;0.60;;;;;;;;;;5036084;28;20052;-83
2022/09/03 12:19:24;;;;;;;3.63;0.88;;;;;;;;;;5037087;28;20054;-84
2022/09/03 12:21:51;;;;;;;0.50;0.40;;;;;;;;;;5039839;28;20444;-84
2022/09/03 12:24:19;;;;;;;0.70;0.70;;;;;;;;;;5039701;28;20045;-83
2022/09/03 12:26:46;;;;;;;1.88;0.55;;;;;;;;;;5038231;28;20064;-84
2022/09/03 12:29:21;;;;;;;2.72;0.70;;;;;;;;;;5037632;28;20057;-83
2022/09/03 12:31:55;;;;;;;1.17;0.70;;;;;;;;;;5039015;28;20475;-83
2022/09/03 12:34:24;;;;;;;2.00;0.68;;;;;;;;;;5039691;28;20050;-82
2022/09/03 12:36:52;;;;;;;1.88;0.80;;;;;;;;;;5042028;28;20111;-84
2022/09/03 12:39:20;;;;;;;0.85;0.70;;;;;;;;;;5045832;28;20053;-82
2022/09/03 12:42:10;;;;;;;0.60;0.60;;;;;;;;;;5044770;28;20069;-83
2022/09/03 12:44:40;;;;;;;0.60;0.50;;;;;;;;;;5049246;28;20137;-84
2022/09/03 12:47:16;;;;;;;0.55;0.55;;;;;;;;;;5053889;28;20030;-83
2022/09/03 12:50:06;;;;;;;1.80;0.70;;;;;;;;;;5054556;28;20046;-84
2022/09/03 12:52:37;;;;;;;0.43;0.43;;;;;;;;;;5052994;28;20045;-83
2022/09/03 12:55:28;;;;;;;2.75;0.60;;;;;;;;;;5054794;28;20056;-83
2022/09/03 12:58:01;;;;;;;0.55;0.50;;;;;;;;;;5023844;28;20408;-84
2022/09/03 13:00:30;;;;;;;0.77;0.60;;;;;;;;;;5052164;28;20050;-84
2022/09/03 13:03:17;;;;;;;1.08;0.52;;;;;;;;;;5049735;28;20045;-84
2022/09/03 13:05:47;;;;;;;0.60;0.50;;;;;;;;;;5050526;28;20072;-84
2022/09/03 13:08:18;;;;;;;1.75;0.65;;;;;;;;;;5051396;28;20045;-84
2022/09/03 13:10:47;;;;;;;0.70;0.70;;;;;;;;;;5052289;28;20046;-84
2022/09/03 13:13:24;;;;;;;1.20;0.55;;;;;;;;;;5050970;28;20049;-83
2022/09/03 13:16:00;;;;;;;1.40;0.80;;;;;;;;;;5051100;28;20041;-84
2022/09/03 13:18:33;;;;;;;0.50;0.50;;;;;;;;;;5049093;28;20100;-84
2022/09/03 13:21:11;;;;;;;3.38;0.80;;;;;;;;;;5045678;28;20048;-86
2022/09/03 13:23:53;;;;;;;2.25;0.60;;;;;;;;;;5046487;23;20053;-89
2022/09/03 13:26:32;;;;;;;0.50;0.50;;;;;;;;;;4998091;28;20081;-88
2022/09/03 13:29:05;;;;;;;0.70;0.70;;;;;;;;;;4999129;28;20077;-89
2022/09/03 13:31:59;;;;;;;1.95;0.68;;;;;;;;;;4999050;28;20046;-89
2022/09/03 13:34:35;;;;;;;0.77;0.50;;;;;;;;;;5015933;28;20100;-89
2022/09/03 13:37:17;;;;;;;1.17;0.65;;;;;;;;;;4999098;28;20078;-90
2022/09/03 13:39:52;;;;;;;0.63;0.60;;;;;;;;;;4999218;28;20069;-88
2022/09/03 13:42:35;;;;;;;5.50;0.93;;;;;;;;;;4999098;28;20056;-90
2022/09/03 13:45:20;;;;;;;0.70;0.70;;;;;;;;;;4999342;28;20053;-92
2022/09/03 13:51:11;;;;;;;2.28;0.65;;;;;;;;;;5015794;28;20080;-88
2022/09/03 13:53:41;;;;;;;1.10;0.70;;;;;;;;;;4999443;28;20100;-90
2022/09/03 13:56:26;;;;;;;1.50;0.80;;;;;;;;;;4998580;28;20497;-91
2022/09/03 13:59:01;;;;;;;2.75;0.60;;;;;;;;;;4999024;28;20057;-90
2022/09/03 14:01:54;;;;;;;0.80;0.80;;;;;;;;;;4998393;28;20073;-92
2022/09/03 14:04:25;;;;;;;4.47;0.60;;;;;;;;;;4998257;28;20046;-91
2022/09/03 14:07:01;;;;;;;1.35;0.47;;;;;;;;;;4998800;28;20348;-90
2022/09/03 14:09:48;;;;;;;1.27;0.70;;;;;;;;;;4999070;28;20490;-93
2022/09/03 14:12:15;;;;;;;0.63;0.50;;;;;;;;;;4999805;28;20060;-90
2022/09/03 14:14:49;;;;;;;0.52;0.52;;;;;;;;;;4997805;28;20084;-92
2022/09/03 14:17:32;;;;;;;1.67;0.75;;;;;;;;;;4998639;28;20396;-91
2022/09/03 14:20:06;;;;;;;0.68;0.60;;;;;;;;;;4998096;28;20077;-94
2022/09/03 14:22:52;;;;;;;2.97;0.50;;;;;;;;;;4999038;28;20081;-94
2022/09/03 14:25:20;;;;;;;2.45;0.75;;;;;;;;;;4997750;28;20050;-91
2022/09/03 14:27:48;;;;;;;2.00;0.77;;;;;;;;;;4997816;28;20502;-92
2022/09/03 14:30:15;;;;;;;0.77;0.70;;;;;;;;;;4998516;28;20100;-93
2022/09/03 14:33:01;;;;;;;2.92;0.60;;;;;;;;;;4998574;28;20076;-92
2022/09/03 14:35:32;;;;;;;1.92;0.70;;;;;;;;;;4997777;28;20069;-93
2022/09/03 14:37:59;;;;;;;0.70;0.70;;;;;;;;;;4998472;28;20152;-89
2022/09/03 14:40:33;;;;;;;1.35;0.75;;;;;;;;;;5012436;28;20061;-94
2022/09/03 14:43:00;;;;;;;2.30;0.80;;;;;;;;;;4999353;28;20073;-93
2022/09/03 14:45:48;;;;;;;0.75;0.63;;;;;;;;;;5001368;28;20564;-92
2022/09/03 14:48:26;;;;;;;2.85;0.77;;;;;;;;;;4998729;28;20053;-94
2022/09/03 14:50:55;;;;;;;1.08;0.63;;;;;;;;;;4998733;28;20511;-92
2022/09/03 14:53:41;;;;;;;1.88;0.60;;;;;;;;;;4997528;28;20084;-93
2022/09/03 14:56:22;;;;;;;0.93;0.68;;;;;;;;;;4999757;28;20050;-93
2022/09/03 14:59:07;;;;;;;1.35;0.70;;;;;;;;;;5000457;28;20104;-94
2022/09/03 15:01:35;;;;;;;0.65;0.65;;;;;;;;;;4997135;28;20053;-93
2022/09/03 15:04:30;;;;;;;1.33;0.70;;;;;;;;;;5006180;28;20053;-95
2022/09/03 15:07:16;;;;;;;2.78;0.70;;;;;;;;;;5001732;28;20054;-95
2022/09/03 15:09:54;;;;;;;0.57;0.55;;;;;;;;;;4999464;28;20046;-94
2022/09/03 15:12:25;;;;;;;0.55;0.55;;;;;;;;;;4997709;28;20073;-92
2022/09/03 15:14:52;;;;;;;0.57;0.50;;;;;;;;;;4998454;28;20490;-92
2022/09/03 15:17:39;;;;;;;1.98;0.77;;;;;;;;;;4996906;28;20077;-94
2022/09/03 15:20:07;;;;;;;1.15;0.73;;;;;;;;;;4997747;28;20065;-92